createdAt,value
2019-02-27T00:00:09.142Z,94.98
2019-02-27T00:01:07.583Z,94.35
2019-02-27T00:02:07.557Z,94.77
2019-02-27T00:03:07.547Z,94.45
2019-02-27T00:04:07.611Z,95.72
2019-02-27T00:05:08.419Z,95.98
2019-02-27T00:06:07.508Z,95.67
2019-02-27T00:07:07.500Z,95.29
2019-02-27T00:08:07.488Z,95.50
2019-02-27T00:09:07.487Z,95.82
2019-02-27T00:10:07.503Z,96.45
2019-02-27T00:11:07.458Z,96.77
2019-02-27T00:12:07.472Z,96.77
2019-02-27T00:13:07.439Z,96.55
2019-02-27T00:14:07.423Z,96.77
2019-02-27T00:15:07.423Z,96.45
2019-02-27T00:16:10.862Z,96.87
2019-02-27T00:17:08.321Z,96.87
2019-02-27T00:18:07.380Z,96.97
2019-02-27T00:19:07.369Z,96.77
2019-02-27T00:20:07.363Z,96.55
2019-02-27T00:21:10.230Z,96.81
2019-02-27T00:22:07.344Z,96.87
2019-02-27T00:23:07.369Z,96.91
2019-02-27T00:24:07.325Z,97.44
2019-02-27T00:25:07.312Z,97.60
2019-02-27T00:26:09.056Z,98.44
2019-02-27T00:27:07.297Z,97.60
2019-02-27T00:28:07.308Z,96.97
2019-02-27T00:29:07.300Z,96.77
2019-02-27T00:30:07.260Z,96.28
2019-02-27T00:31:11.177Z,96.07
2019-02-27T00:32:07.237Z,96.64
2019-02-27T00:33:07.267Z,96.81
2019-02-27T00:34:07.226Z,96.49
2019-02-27T00:35:07.491Z,96.91
2019-02-27T00:36:07.200Z,98.07
2019-02-27T00:37:07.193Z,98.13
2019-02-27T00:38:07.213Z,98.34
2019-02-27T00:39:07.176Z,98.28
2019-02-27T00:40:07.160Z,97.33
2019-02-27T00:41:07.154Z,96.95
2019-02-27T00:42:07.170Z,96.53
2019-02-27T00:43:07.140Z,97.48
2019-02-27T00:44:07.126Z,96.95
2019-02-27T00:45:07.699Z,97.11
2019-02-27T00:46:07.105Z,96.85
2019-02-27T00:47:07.100Z,97.48
2019-02-27T00:48:07.102Z,97.69
2019-02-27T00:49:07.070Z,97.48
2019-02-27T00:50:07.077Z,97.11
2019-02-27T00:51:07.076Z,97.11
2019-02-27T00:52:07.045Z,97.74
2019-02-27T00:53:07.037Z,98.47
2019-02-27T00:54:07.023Z,98.58
2019-02-27T00:55:07.024Z,98.36
2019-02-27T00:56:07.031Z,98.58
2019-02-27T00:57:06.988Z,98.58
2019-02-27T00:58:06.984Z,98.68
2019-02-27T00:59:06.978Z,98.68
2019-02-27T01:00:07.189Z,98.47
2019-02-27T01:01:06.952Z,98.72
2019-02-27T01:02:06.998Z,98.41
2019-02-27T01:03:06.942Z,98.62
2019-02-27T01:04:06.930Z,98.52
2019-02-27T01:05:09.201Z,98.52
2019-02-27T01:06:06.917Z,98.52
2019-02-27T01:07:06.927Z,98.62
2019-02-27T01:08:06.890Z,98.72
2019-02-27T01:09:07.074Z,98.62
2019-02-27T01:10:06.875Z,98.72
2019-02-27T01:11:06.866Z,98.79
2019-02-27T01:12:06.881Z,98.89
2019-02-27T01:13:06.836Z,99.00
2019-02-27T01:14:06.828Z,99.52
2019-02-27T01:15:07.905Z,99.41
2019-02-27T01:16:06.807Z,99.52
2019-02-27T01:17:06.822Z,99.21
2019-02-27T01:18:06.787Z,99.31
2019-02-27T01:19:06.774Z,99.21
2019-02-27T01:20:11.187Z,98.94
2019-02-27T01:21:07.757Z,99.00
2019-02-27T01:22:06.800Z,98.52
2019-02-27T01:23:10.910Z,98.52
2019-02-27T01:24:06.732Z,98.62
2019-02-27T01:25:06.783Z,98.26
2019-02-27T01:26:06.707Z,98.68
2019-02-27T01:27:06.728Z,98.79
2019-02-27T01:28:10.854Z,98.68
2019-02-27T01:29:06.670Z,98.62
2019-02-27T01:30:06.666Z,97.67
2019-02-27T01:31:06.659Z,97.15
2019-02-27T01:32:06.744Z,97.41
2019-02-27T01:33:06.639Z,97.30
2019-02-27T01:34:11.182Z,97.09
2019-02-27T01:35:07.619Z,96.81
2019-02-27T01:36:06.608Z,97.24
2019-02-27T01:37:06.630Z,96.81
2019-02-27T01:38:06.594Z,97.24
2019-02-27T01:39:08.926Z,97.45
2019-02-27T01:40:06.574Z,97.76
2019-02-27T01:41:06.557Z,97.03
2019-02-27T01:42:06.652Z,97.34
2019-02-27T01:43:06.569Z,98.82
2019-02-27T01:44:06.525Z,98.60
2019-02-27T01:45:06.515Z,98.98
2019-02-27T01:46:06.510Z,99.55
2019-02-27T01:47:06.499Z,99.44
2019-02-27T01:48:08.948Z,99.55
2019-02-27T01:49:06.473Z,99.02
2019-02-27T01:50:06.460Z,99.51
2019-02-27T01:51:06.454Z,98.92
2019-02-27T01:52:06.475Z,98.60
2019-02-27T01:53:07.323Z,98.82
2019-02-27T01:54:06.423Z,98.71
2019-02-27T01:55:06.427Z,98.82
2019-02-27T01:56:06.409Z,98.18
2019-02-27T01:57:06.414Z,98.88
2019-02-27T01:58:09.132Z,98.98
2019-02-27T01:59:06.369Z,99.19
2019-02-27T02:00:06.395Z,98.92
2019-02-27T02:01:06.357Z,98.92
2019-02-27T02:02:06.362Z,98.50
2019-02-27T02:03:06.335Z,98.60
2019-02-27T02:04:06.346Z,98.82
2019-02-27T02:05:06.316Z,98.82
2019-02-27T02:06:06.302Z,98.75
2019-02-27T02:07:07.302Z,98.13
2019-02-27T02:08:06.276Z,98.23
2019-02-27T02:09:06.269Z,98.86
2019-02-27T02:10:06.294Z,99.13
2019-02-27T02:11:06.257Z,99.44
2019-02-27T02:12:08.650Z,99.55
2019-02-27T02:13:06.232Z,99.61
2019-02-27T02:14:06.228Z,99.72
2019-02-27T02:15:06.212Z,99.61
2019-02-27T02:16:06.205Z,99.51
2019-02-27T02:17:07.455Z,99.51
2019-02-27T02:18:06.182Z,99.19
2019-02-27T02:19:06.172Z,99.19
2019-02-27T02:20:06.161Z,98.92
2019-02-27T02:21:06.161Z,98.92
2019-02-27T02:22:08.999Z,98.92
2019-02-27T02:23:06.134Z,99.24
2019-02-27T02:24:06.122Z,99.02
2019-02-27T02:25:06.129Z,99.98
2019-02-27T02:26:06.128Z,99.99
2019-02-27T02:27:08.237Z,99.98
2019-02-27T02:28:06.088Z,99.44
2019-02-27T02:29:06.069Z,98.82
2019-02-27T02:30:06.151Z,99.13
2019-02-27T02:31:06.547Z,98.65
2019-02-27T02:32:06.042Z,98.44
2019-02-27T02:33:06.054Z,98.97
2019-02-27T02:34:06.361Z,98.33
2019-02-27T02:35:06.013Z,98.75
2019-02-27T02:36:06.008Z,98.97
2019-02-27T02:37:05.994Z,99.18
2019-02-27T02:38:12.056Z,99.49
2019-02-27T02:39:06.971Z,99.60
2019-02-27T02:40:05.964Z,99.99
2019-02-27T02:43:23.486Z,99.99
2019-02-27T02:44:23.466Z,99.99
2019-02-27T02:45:23.446Z,99.99
2019-02-27T02:46:23.455Z,99.99
2019-02-27T02:47:23.431Z,99.99
2019-02-27T02:48:23.445Z,99.99
2019-02-27T02:49:23.414Z,99.99
2019-02-27T02:50:23.398Z,99.99
2019-02-27T02:51:28.582Z,99.99
2019-02-27T02:52:24.376Z,99.87
2019-02-27T02:53:25.377Z,99.99
2019-02-27T02:54:23.353Z,99.70
2019-02-27T02:55:23.347Z,99.99
2019-02-27T02:56:24.848Z,99.64
2019-02-27T02:57:23.357Z,99.64
2019-02-27T02:58:23.324Z,99.37
2019-02-27T02:59:24.958Z,99.69
2019-02-27T03:00:23.415Z,99.99
2019-02-27T03:01:23.286Z,99.99
2019-02-27T03:02:24.620Z,99.99
2019-02-27T03:03:23.264Z,99.99
2019-02-27T03:04:23.257Z,99.99
2019-02-27T03:05:24.355Z,99.99
2019-02-27T03:06:23.250Z,99.99
2019-02-27T03:07:23.222Z,99.99
2019-02-27T03:08:23.239Z,99.99
2019-02-27T03:09:23.205Z,99.99
2019-02-27T03:10:23.432Z,99.99
2019-02-27T03:11:23.965Z,99.99
2019-02-27T03:12:29.942Z,99.99
2019-02-27T03:13:24.545Z,99.99
2019-02-27T03:14:23.425Z,99.99
2019-02-27T03:15:28.474Z,99.99
2019-02-27T03:16:24.349Z,99.99
2019-02-27T03:17:23.369Z,99.99
2019-02-27T03:18:26.298Z,99.99
2019-02-27T03:19:24.589Z,99.99
2019-02-27T03:20:23.344Z,99.99
2019-02-27T03:21:27.379Z,99.99
2019-02-27T03:22:24.353Z,99.99
2019-02-27T03:23:23.340Z,99.70
2019-02-27T03:24:27.932Z,99.60
2019-02-27T03:25:24.289Z,99.64
2019-02-27T03:26:23.260Z,99.81
2019-02-27T03:27:29.563Z,99.99
2019-02-27T03:28:24.244Z,99.99
2019-02-27T03:29:23.258Z,99.99
2019-02-27T03:30:34.046Z,99.99
2019-02-27T03:31:24.244Z,99.99
2019-02-27T03:32:23.246Z,99.99
2019-02-27T03:33:26.661Z,99.99
2019-02-27T03:34:23.205Z,99.99
2019-02-27T03:35:27.929Z,99.99
2019-02-27T03:36:24.063Z,99.99
2019-02-27T03:37:22.980Z,99.99
2019-02-27T03:38:24.063Z,99.99
2019-02-27T03:39:23.026Z,99.99
2019-02-27T03:40:22.950Z,99.99
2019-02-27T03:41:23.770Z,99.99
2019-02-27T03:42:22.928Z,99.79
2019-02-27T03:43:22.928Z,99.99
2019-02-27T03:44:22.903Z,99.99
2019-02-27T03:45:22.896Z,99.99
2019-02-27T03:46:22.978Z,99.79
2019-02-27T03:47:22.893Z,99.48
2019-02-27T03:48:27.585Z,99.79
2019-02-27T03:49:23.941Z,99.99
2019-02-27T03:50:22.852Z,99.99
2019-02-27T03:51:24.786Z,99.99
2019-02-27T03:52:22.827Z,99.99
2019-02-27T03:53:22.824Z,99.99
2019-02-27T03:54:22.891Z,99.99
2019-02-27T03:55:22.800Z,99.99
2019-02-27T03:56:22.786Z,99.99
2019-02-27T03:57:22.775Z,99.99
2019-02-27T03:58:22.762Z,99.99
2019-02-27T03:59:22.840Z,99.99
2019-02-27T04:00:22.744Z,99.99
2019-02-27T04:01:22.737Z,99.99
2019-02-27T04:02:22.736Z,99.99
2019-02-27T04:03:22.705Z,99.99
2019-02-27T04:04:22.781Z,99.99
2019-02-27T04:05:22.699Z,99.99
2019-02-27T04:06:22.695Z,99.99
2019-02-27T04:07:22.686Z,99.99
2019-02-27T04:08:22.666Z,99.99
2019-02-27T04:09:22.739Z,99.99
2019-02-27T04:10:22.634Z,99.99
2019-02-27T04:11:22.635Z,99.99
2019-02-27T04:12:22.620Z,99.99
2019-02-27T04:13:26.407Z,99.99
2019-02-27T04:14:23.696Z,99.99
2019-02-27T04:15:22.589Z,99.99
2019-02-27T04:16:28.920Z,99.99
2019-02-27T04:17:23.565Z,99.99
2019-02-27T04:18:27.523Z,99.99
2019-02-27T04:19:23.566Z,99.99
2019-02-27T04:20:22.597Z,99.99
2019-02-27T04:21:25.367Z,99.99
2019-02-27T04:22:22.507Z,99.99
2019-02-27T04:23:22.501Z,99.99
2019-02-27T04:24:23.237Z,99.99
2019-02-27T04:25:22.571Z,99.99
2019-02-27T04:26:22.482Z,99.99
2019-02-27T04:27:22.446Z,99.99
2019-02-27T04:28:22.455Z,99.99
2019-02-27T04:29:22.461Z,99.99
2019-02-27T04:30:22.504Z,99.95
2019-02-27T04:31:22.437Z,99.52
2019-02-27T04:32:22.410Z,99.10
2019-02-27T04:33:23.201Z,99.63
2019-02-27T04:34:22.405Z,99.46
2019-02-27T04:35:22.447Z,99.25
2019-02-27T04:36:22.384Z,99.35
2019-02-27T04:37:22.380Z,99.99
2019-02-27T04:38:22.356Z,99.99
2019-02-27T04:39:22.343Z,99.99
2019-02-27T04:40:22.444Z,99.99
2019-02-27T04:41:22.329Z,99.99
2019-02-27T04:42:22.947Z,99.99
2019-02-27T04:43:22.380Z,99.99
2019-02-27T04:44:22.306Z,99.99
2019-02-27T04:45:22.293Z,99.99
2019-02-27T04:46:22.450Z,99.99
2019-02-27T04:47:22.343Z,99.99
2019-02-27T04:48:22.248Z,99.99
2019-02-27T04:49:22.240Z,99.99
2019-02-27T04:50:22.224Z,99.99
2019-02-27T04:51:22.228Z,99.99
2019-02-27T04:52:24.407Z,99.99
2019-02-27T04:53:22.178Z,99.99
2019-02-27T04:54:22.169Z,99.99
2019-02-27T04:55:22.162Z,99.99
2019-02-27T04:56:23.301Z,99.99
2019-02-27T04:57:22.173Z,99.99
2019-02-27T04:58:22.125Z,99.99
2019-02-27T04:59:22.100Z,99.82
2019-02-27T05:00:26.086Z,99.99
2019-02-27T05:01:22.086Z,99.99
2019-02-27T05:02:22.101Z,99.99
2019-02-27T05:03:22.071Z,99.99
2019-02-27T05:04:22.054Z,99.99
2019-02-27T05:05:22.048Z,99.99
2019-02-27T05:06:22.032Z,99.99
2019-02-27T05:07:22.254Z,99.76
2019-02-27T05:08:22.041Z,99.82
2019-02-27T05:09:22.002Z,99.76
2019-02-27T05:10:22.024Z,99.99
2019-02-27T05:11:21.988Z,99.99
2019-02-27T05:12:21.979Z,99.99
2019-02-27T05:13:21.959Z,99.99
2019-02-27T05:14:21.960Z,99.99
2019-02-27T05:15:21.945Z,99.99
2019-02-27T05:16:21.972Z,99.99
2019-02-27T05:17:22.048Z,99.99
2019-02-27T05:18:21.907Z,99.99
2019-02-27T05:19:21.909Z,99.99
2019-02-27T05:20:21.900Z,99.99
2019-02-27T05:21:21.879Z,99.99
2019-02-27T05:22:26.432Z,99.99
2019-02-27T05:23:21.894Z,99.99
2019-02-27T05:24:21.849Z,99.99
2019-02-27T05:25:21.875Z,99.99
2019-02-27T05:26:21.836Z,99.99
2019-02-27T05:27:21.823Z,99.99
2019-02-27T05:28:21.845Z,99.99
2019-02-27T05:29:21.808Z,99.99
2019-02-27T05:30:21.826Z,99.99
2019-02-27T05:31:21.782Z,99.99
2019-02-27T05:32:22.245Z,99.99
2019-02-27T05:33:21.805Z,99.99
2019-02-27T05:34:21.782Z,99.99
2019-02-27T05:35:24.211Z,99.99
2019-02-27T05:36:21.742Z,99.99
2019-02-27T05:37:21.750Z,99.99
2019-02-27T05:38:21.734Z,99.99
2019-02-27T05:39:21.703Z,99.99
2019-02-27T05:40:25.672Z,99.99
2019-02-27T05:41:21.704Z,99.99
2019-02-27T05:42:21.696Z,99.99
2019-02-27T05:43:21.669Z,99.99
2019-02-27T05:44:22.322Z,99.99
2019-02-27T05:45:21.652Z,99.99
2019-02-27T05:46:21.641Z,99.99
2019-02-27T05:47:21.649Z,99.99
2019-02-27T05:48:21.609Z,99.99
2019-02-27T05:49:21.606Z,99.99
2019-02-27T05:50:21.592Z,99.99
2019-02-27T05:51:21.593Z,99.99
2019-02-27T05:52:21.600Z,99.99
2019-02-27T05:53:22.356Z,99.99
2019-02-27T05:54:21.566Z,99.99
2019-02-27T05:55:21.550Z,99.99
2019-02-27T05:56:21.554Z,99.99
2019-02-27T05:57:23.342Z,99.99
2019-02-27T05:58:23.104Z,99.99
2019-02-27T05:59:21.552Z,99.99
2019-02-27T06:00:21.584Z,99.99
2019-02-27T06:01:21.494Z,99.99
2019-02-27T06:02:21.486Z,99.99
2019-02-27T06:03:21.512Z,99.99
2019-02-27T06:04:24.978Z,99.99
2019-02-27T06:05:21.443Z,99.99
2019-02-27T06:06:21.430Z,99.99
2019-02-27T06:07:21.439Z,99.99
2019-02-27T06:08:21.442Z,99.99
2019-02-27T06:09:21.407Z,99.99
2019-02-27T06:10:23.423Z,99.99
2019-02-27T06:11:21.396Z,99.99
2019-02-27T06:12:21.389Z,99.99
2019-02-27T06:13:21.396Z,99.99
2019-02-27T06:14:21.988Z,99.99
2019-02-27T06:15:21.345Z,99.99
2019-02-27T06:16:21.338Z,99.99
2019-02-27T06:17:21.428Z,99.99
2019-02-27T06:18:23.466Z,99.99
2019-02-27T06:19:21.311Z,99.99
2019-02-27T06:20:21.293Z,99.99
2019-02-27T06:21:21.292Z,99.99
2019-02-27T06:22:21.270Z,99.99
2019-02-27T06:23:21.295Z,99.99
2019-02-27T06:24:21.366Z,99.99
2019-02-27T06:25:23.334Z,99.99
2019-02-27T06:26:21.247Z,99.99
2019-02-27T06:27:21.270Z,99.99
2019-02-27T06:28:21.243Z,99.99
2019-02-27T06:29:23.403Z,99.99
2019-02-27T06:30:21.195Z,99.99
2019-02-27T06:31:21.194Z,99.99
2019-02-27T06:32:21.208Z,99.99
2019-02-27T06:33:21.196Z,99.99
2019-02-27T06:34:22.323Z,99.99
2019-02-27T06:35:21.162Z,99.99
2019-02-27T06:36:21.137Z,99.99
2019-02-27T06:37:21.130Z,99.99
2019-02-27T06:38:25.034Z,99.99
2019-02-27T06:39:21.108Z,99.99
2019-02-27T06:40:21.112Z,99.99
2019-02-27T06:41:21.084Z,99.99
2019-02-27T06:42:21.163Z,99.99
2019-02-27T06:43:21.111Z,99.98
2019-02-27T06:44:21.057Z,99.66
2019-02-27T06:45:21.045Z,99.13
2019-02-27T06:46:21.058Z,98.56
2019-02-27T06:47:21.022Z,97.57
2019-02-27T06:48:21.049Z,97.06
2019-02-27T06:49:21.006Z,96.70
2019-02-27T06:50:25.279Z,96.66
2019-02-27T06:51:21.987Z,95.50
2019-02-27T06:52:20.976Z,94.73
2019-02-27T06:53:20.966Z,94.37
2019-02-27T06:54:20.986Z,93.70
2019-02-27T06:55:20.945Z,92.71
2019-02-27T06:56:20.930Z,91.41
2019-02-27T06:57:20.923Z,90.47
2019-02-27T06:58:20.945Z,89.00
2019-02-27T06:59:24.852Z,88.02
2019-02-27T07:00:20.899Z,88.19
2019-02-27T07:01:20.891Z,88.92
2019-02-27T07:02:21.703Z,88.61
2019-02-27T07:03:20.897Z,87.63
2019-02-27T07:04:20.849Z,87.10
2019-02-27T07:05:20.846Z,87.27
2019-02-27T07:06:21.650Z,87.48
2019-02-27T07:07:20.826Z,87.38
2019-02-27T07:08:20.845Z,87.34
2019-02-27T07:09:20.797Z,87.71
2019-02-27T07:10:20.798Z,87.15
2019-02-27T07:11:20.782Z,86.80
2019-02-27T07:12:21.784Z,86.38
2019-02-27T07:13:21.657Z,86.13
2019-02-27T07:14:20.750Z,84.36
2019-02-27T07:15:20.741Z,84.01
2019-02-27T07:16:22.941Z,83.59
2019-02-27T07:17:20.733Z,84.50
2019-02-27T07:18:20.715Z,83.87
2019-02-27T07:19:20.739Z,83.14
2019-02-27T07:20:23.870Z,83.31
2019-02-27T07:21:20.680Z,83.10
2019-02-27T07:22:20.672Z,82.86
2019-02-27T07:23:23.620Z,82.61
2019-02-27T07:24:20.680Z,81.84
2019-02-27T07:25:20.642Z,80.91
2019-02-27T07:26:20.629Z,80.08
2019-02-27T07:27:20.616Z,79.24
2019-02-27T07:28:20.602Z,79.45
2019-02-27T07:29:22.133Z,79.14
2019-02-27T07:30:23.640Z,79.03
2019-02-27T07:31:20.581Z,80.04
2019-02-27T07:32:20.569Z,79.72
2019-02-27T07:33:20.554Z,79.83
2019-02-27T07:34:20.576Z,80.11
2019-02-27T07:35:20.532Z,79.58
2019-02-27T07:36:20.530Z,79.03
2019-02-27T07:37:20.517Z,79.65
2019-02-27T07:38:21.631Z,78.27
2019-02-27T07:39:20.519Z,78.16
2019-02-27T07:40:20.498Z,77.72
2019-02-27T07:41:21.033Z,77.37
2019-02-27T07:42:20.461Z,77.37
2019-02-27T07:43:20.503Z,77.33
2019-02-27T07:44:20.445Z,77.61
2019-02-27T07:45:22.546Z,76.84
2019-02-27T07:46:22.401Z,76.29
2019-02-27T07:47:20.416Z,74.43
2019-02-27T07:48:20.405Z,73.98
2019-02-27T07:49:20.431Z,73.46
2019-02-27T07:50:20.408Z,72.64
2019-02-27T07:51:20.792Z,72.53
2019-02-27T07:52:20.369Z,71.95
2019-02-27T07:53:20.342Z,71.84
2019-02-27T07:54:20.366Z,72.74
2019-02-27T07:55:22.971Z,71.40
2019-02-27T07:56:20.328Z,71.57
2019-02-27T07:57:20.312Z,70.33
2019-02-27T07:58:20.293Z,72.06
2019-02-27T07:59:20.321Z,70.51
2019-02-27T08:00:20.434Z,70.27
2019-02-27T08:01:20.970Z,70.68
2019-02-27T08:02:20.256Z,70.23
2019-02-27T08:03:20.247Z,68.96
2019-02-27T08:04:22.850Z,68.86
2019-02-27T08:05:20.271Z,69.07
2019-02-27T08:06:20.225Z,68.96
2019-02-27T08:07:20.242Z,68.73
2019-02-27T08:08:23.222Z,68.83
2019-02-27T08:09:20.319Z,69.21
2019-02-27T08:10:20.230Z,68.94
2019-02-27T08:11:20.193Z,67.47
2019-02-27T08:12:20.770Z,68.43
2019-02-27T08:13:20.136Z,66.25
2019-02-27T08:14:20.125Z,64.37
2019-02-27T08:15:20.121Z,66.19
2019-02-27T08:16:20.139Z,64.00
2019-02-27T08:17:20.100Z,61.61
2019-02-27T08:18:29.544Z,62.30
2019-02-27T08:19:21.141Z,62.40
2019-02-27T08:20:21.099Z,61.63
2019-02-27T08:21:20.062Z,59.48
2019-02-27T08:22:20.049Z,59.25
2019-02-27T08:23:20.037Z,59.14
2019-02-27T08:24:20.047Z,59.42
2019-02-27T08:25:20.020Z,58.91
2019-02-27T08:26:20.002Z,57.25
2019-02-27T08:27:19.990Z,57.32
2019-02-27T08:28:19.995Z,57.12
2019-02-27T08:29:20.000Z,57.93
2019-02-27T08:30:19.962Z,56.74
2019-02-27T08:31:19.957Z,56.63
2019-02-27T08:32:19.942Z,56.46
2019-02-27T08:33:19.930Z,58.17
2019-02-27T08:34:19.969Z,57.73
2019-02-27T08:35:19.917Z,56.58
2019-02-27T08:36:19.927Z,55.13
2019-02-27T08:37:20.327Z,53.16
2019-02-27T08:38:19.885Z,54.28
2019-02-27T08:39:20.249Z,53.85
2019-02-27T08:40:24.411Z,53.67
2019-02-27T08:41:20.845Z,53.62
2019-02-27T08:42:19.830Z,52.88
2019-02-27T08:43:19.862Z,51.53
2019-02-27T08:44:19.846Z,50.80
2019-02-27T08:45:20.564Z,50.82
2019-02-27T08:46:19.794Z,51.53
2019-02-27T08:47:19.789Z,49.98
2019-02-27T08:48:19.769Z,48.43
2019-02-27T08:49:24.021Z,49.12
2019-02-27T08:50:20.747Z,47.47
2019-02-27T08:51:19.743Z,44.93
2019-02-27T08:52:19.732Z,46.13
2019-02-27T08:53:19.721Z,46.64
2019-02-27T08:54:19.711Z,48.27
2019-02-27T08:55:22.345Z,47.43
2019-02-27T08:56:19.684Z,46.80
2019-02-27T08:57:19.684Z,47.71
2019-02-27T08:58:19.666Z,46.67
2019-02-27T08:59:19.660Z,46.04
2019-02-27T09:00:19.759Z,45.11
2019-02-27T09:01:21.673Z,44.99
2019-02-27T09:02:19.629Z,44.46
2019-02-27T09:03:20.573Z,45.17
2019-02-27T09:04:19.618Z,42.33
2019-02-27T09:05:20.780Z,42.74
2019-02-27T09:06:19.579Z,42.80
2019-02-27T09:07:19.567Z,41.78
2019-02-27T09:08:19.555Z,40.67
2019-02-27T09:09:19.548Z,40.37
2019-02-27T09:10:19.739Z,40.29
2019-02-27T09:11:19.532Z,41.89
2019-02-27T09:12:19.516Z,41.87
2019-02-27T09:13:19.529Z,41.95
2019-02-27T09:14:19.496Z,39.91
2019-02-27T09:15:19.480Z,39.69
2019-02-27T09:16:19.479Z,39.69
2019-02-27T09:17:19.469Z,39.28
2019-02-27T09:18:19.449Z,38.66
2019-02-27T09:19:20.751Z,38.44
2019-02-27T09:20:20.495Z,39.25
2019-02-27T09:21:19.416Z,38.44
2019-02-27T09:22:19.406Z,37.41
2019-02-27T09:23:19.397Z,37.92
2019-02-27T09:24:19.388Z,36.89
2019-02-27T09:25:23.694Z,36.77
2019-02-27T09:26:20.371Z,36.37
2019-02-27T09:27:19.380Z,36.98
2019-02-27T09:28:19.383Z,36.15
2019-02-27T09:29:19.340Z,36.94
2019-02-27T09:30:19.328Z,35.93
2019-02-27T09:31:19.387Z,36.49
2019-02-27T09:32:20.471Z,37.40
2019-02-27T09:33:20.044Z,36.77
2019-02-27T09:34:19.324Z,36.37
2019-02-27T09:35:19.300Z,36.37
2019-02-27T09:36:19.259Z,36.67
2019-02-27T09:37:19.259Z,36.59
2019-02-27T09:38:19.242Z,37.21
2019-02-27T09:39:19.229Z,37.80
2019-02-27T09:40:19.246Z,37.60
2019-02-27T09:41:19.212Z,35.68
2019-02-27T09:42:19.783Z,36.30
2019-02-27T09:43:19.225Z,36.82
2019-02-27T09:44:19.178Z,37.43
2019-02-27T09:45:19.199Z,36.81
2019-02-27T09:46:20.066Z,35.48
2019-02-27T09:47:19.143Z,35.68
2019-02-27T09:48:19.368Z,35.57
2019-02-27T09:49:19.123Z,34.66
2019-02-27T09:50:19.153Z,34.63
2019-02-27T09:51:22.135Z,34.32
2019-02-27T09:52:19.092Z,31.60
2019-02-27T09:53:19.082Z,32.51
2019-02-27T09:54:19.067Z,33.13
2019-02-27T09:55:20.307Z,35.03
2019-02-27T09:56:19.070Z,34.59
2019-02-27T09:57:19.041Z,34.67
2019-02-27T09:58:19.026Z,34.67
2019-02-27T09:59:19.692Z,34.66
2019-02-27T10:00:19.247Z,33.72
2019-02-27T10:01:19.011Z,31.30
2019-02-27T10:02:18.997Z,29.69
2019-02-27T10:03:21.167Z,28.50
2019-02-27T10:04:18.962Z,29.25
2019-02-27T10:05:18.980Z,29.46
2019-02-27T10:06:18.937Z,29.05
2019-02-27T10:07:18.941Z,28.77
2019-02-27T10:08:18.918Z,29.29
2019-02-27T10:09:18.926Z,28.47
2019-02-27T10:10:18.944Z,29.25
2019-02-27T10:11:21.563Z,28.13
2019-02-27T10:12:18.875Z,28.30
2019-02-27T10:13:18.866Z,27.40
2019-02-27T10:14:18.865Z,28.60
2019-02-27T10:15:18.884Z,28.82
2019-02-27T10:16:18.843Z,28.29
2019-02-27T10:17:18.841Z,28.39
2019-02-27T10:18:21.879Z,28.41
2019-02-27T10:19:18.807Z,28.69
2019-02-27T10:20:18.826Z,27.79
2019-02-27T10:21:18.817Z,28.80
2019-02-27T10:22:20.290Z,28.30
2019-02-27T10:23:18.764Z,28.69
2019-02-27T10:24:18.784Z,28.56
2019-02-27T10:25:18.742Z,27.33
2019-02-27T10:26:22.642Z,28.14
2019-02-27T10:27:18.716Z,26.64
2019-02-27T10:28:18.706Z,27.37
2019-02-27T10:29:19.067Z,28.20
2019-02-27T10:30:18.678Z,28.89
2019-02-27T10:31:18.680Z,28.80
2019-02-27T10:32:18.672Z,29.31
2019-02-27T10:33:18.654Z,28.70
2019-02-27T10:34:18.662Z,28.38
2019-02-27T10:35:18.636Z,28.17
2019-02-27T10:36:18.614Z,28.06
2019-02-27T10:37:19.006Z,27.96
2019-02-27T10:38:18.598Z,28.46
2019-02-27T10:39:18.584Z,28.56
2019-02-27T10:40:18.616Z,28.23
2019-02-27T10:41:18.567Z,26.82
2019-02-27T10:42:18.553Z,26.62
2019-02-27T10:43:18.553Z,27.12
2019-02-27T10:44:18.560Z,27.32
2019-02-27T10:45:18.545Z,27.22
2019-02-27T10:46:18.555Z,26.61
2019-02-27T10:47:18.517Z,26.50
2019-02-27T10:48:18.500Z,27.20
2019-02-27T10:49:21.650Z,26.27
2019-02-27T10:50:18.475Z,25.67
2019-02-27T10:51:18.483Z,24.57
2019-02-27T10:52:24.070Z,24.96
2019-02-27T10:53:19.721Z,25.68
2019-02-27T10:54:18.441Z,25.89
2019-02-27T10:55:18.422Z,25.06
2019-02-27T10:56:18.404Z,24.33
2019-02-27T10:57:18.396Z,24.02
2019-02-27T10:58:18.382Z,23.60
2019-02-27T10:59:19.664Z,22.41
2019-02-27T11:00:18.362Z,24.02
2019-02-27T11:01:18.355Z,24.01
2019-02-27T11:02:18.342Z,24.13
2019-02-27T11:03:18.340Z,23.74
2019-02-27T11:04:18.326Z,23.63
2019-02-27T11:05:18.473Z,24.01
2019-02-27T11:06:18.331Z,23.00
2019-02-27T11:07:18.289Z,22.92
2019-02-27T11:08:19.228Z,23.10
2019-02-27T11:09:18.273Z,23.30
2019-02-27T11:10:18.256Z,23.50
2019-02-27T11:11:18.385Z,23.02
2019-02-27T11:12:18.249Z,23.80
2019-02-27T11:13:18.223Z,22.89
2019-02-27T11:14:18.219Z,23.60
2019-02-27T11:15:18.205Z,22.22
2019-02-27T11:16:20.852Z,22.70
2019-02-27T11:17:18.210Z,22.60
2019-02-27T11:18:18.174Z,23.21
2019-02-27T11:19:18.213Z,24.01
2019-02-27T11:20:21.203Z,23.93
2019-02-27T11:21:18.172Z,24.02
2019-02-27T11:22:18.132Z,23.42
2019-02-27T11:23:18.119Z,24.13
2019-02-27T11:24:18.140Z,23.60
2019-02-27T11:25:22.233Z,23.63
2019-02-27T11:26:19.110Z,24.14
2019-02-27T11:27:18.074Z,23.82
2019-02-27T11:28:18.076Z,22.31
2019-02-27T11:29:18.052Z,23.72
2019-02-27T11:30:18.067Z,23.00
2019-02-27T11:31:18.067Z,22.80
2019-02-27T11:32:22.885Z,23.07
2019-02-27T11:33:25.654Z,22.39
2019-02-27T11:34:18.998Z,22.37
2019-02-27T11:35:18.000Z,22.56
2019-02-27T11:36:18.006Z,22.18
2019-02-27T11:37:17.968Z,22.19
2019-02-27T11:38:17.969Z,22.27
2019-02-27T11:39:17.956Z,22.08
2019-02-27T11:40:17.949Z,21.98
2019-02-27T11:41:17.957Z,22.37
2019-02-27T11:42:17.916Z,21.16
2019-02-27T11:43:17.913Z,21.97
2019-02-27T11:44:17.909Z,21.27
2019-02-27T11:45:17.903Z,21.58
2019-02-27T11:46:18.448Z,22.08
2019-02-27T11:47:17.863Z,22.07
2019-02-27T11:48:20.379Z,21.47
2019-02-27T11:49:17.861Z,21.08
2019-02-27T11:50:18.696Z,21.36
2019-02-27T11:51:20.215Z,21.75
2019-02-27T11:52:17.859Z,22.55
2019-02-27T11:53:17.811Z,21.03
2019-02-27T11:54:17.813Z,21.03
2019-02-27T11:55:17.802Z,20.83
2019-02-27T11:56:20.289Z,20.81
2019-02-27T11:57:17.772Z,20.04
2019-02-27T11:58:17.759Z,20.95
2019-02-27T11:59:17.751Z,20.14
2019-02-27T12:00:17.944Z,20.84
2019-02-27T12:01:21.842Z,20.95
2019-02-27T12:02:17.707Z,20.86
2019-02-27T12:03:17.726Z,20.44
2019-02-27T12:04:19.500Z,19.92
2019-02-27T12:05:17.684Z,19.20
2019-02-27T12:06:17.669Z,19.50
2019-02-27T12:07:17.997Z,19.70
2019-02-27T12:08:17.660Z,19.09
2019-02-27T12:09:17.645Z,18.80
2019-02-27T12:10:17.632Z,19.68
2019-02-27T12:11:17.665Z,19.89
2019-02-27T12:12:17.603Z,19.01
2019-02-27T12:13:17.597Z,20.22
2019-02-27T12:14:18.967Z,20.23
2019-02-27T12:15:17.571Z,20.54
2019-02-27T12:16:18.330Z,20.23
2019-02-27T12:17:17.560Z,20.23
2019-02-27T12:18:17.540Z,20.75
2019-02-27T12:19:17.538Z,20.44
2019-02-27T12:20:18.251Z,19.43
2019-02-27T12:21:17.557Z,19.21
2019-02-27T12:22:17.506Z,19.52
2019-02-27T12:23:17.493Z,19.33
2019-02-27T12:24:18.966Z,19.74
2019-02-27T12:25:17.468Z,19.94
2019-02-27T12:26:17.483Z,20.26
2019-02-27T12:27:37.799Z,20.57
2019-02-27T12:28:18.440Z,20.06
2019-02-27T12:29:17.430Z,19.94
2019-02-27T12:30:17.420Z,20.75
2019-02-27T12:31:17.444Z,20.75
2019-02-27T12:32:19.406Z,20.83
2019-02-27T12:33:17.389Z,20.41
2019-02-27T12:34:17.392Z,19.71
2019-02-27T12:35:17.367Z,19.71
2019-02-27T12:36:18.717Z,19.60
2019-02-27T12:37:27.819Z,20.53
2019-02-27T12:38:18.333Z,20.63
2019-02-27T12:39:18.636Z,20.32
2019-02-27T12:40:17.313Z,20.02
2019-02-27T12:41:17.299Z,19.73
2019-02-27T12:42:17.329Z,20.22
2019-02-27T12:43:18.332Z,20.33
2019-02-27T12:44:17.276Z,20.54
2019-02-27T12:45:17.279Z,21.03
2019-02-27T12:46:17.249Z,20.12
2019-02-27T12:47:17.274Z,20.00
2019-02-27T12:48:17.235Z,19.81
2019-02-27T12:49:19.982Z,19.62
2019-02-27T12:50:17.206Z,19.79
2019-02-27T12:51:17.198Z,19.70
2019-02-27T12:52:17.213Z,19.54
2019-02-27T12:53:20.665Z,20.33
2019-02-27T12:54:17.164Z,19.84